PST,Max TemperatureF,Mean TemperatureF,Min TemperatureF,Max Dew PointF,MeanDew PointF,Min DewpointF,Max Humidity, Mean Humidity, Min Humidity, Max Sea Level PressureIn, Mean Sea Level PressureIn, Min Sea Level PressureIn, Max VisibilityMiles, Mean VisibilityMiles, Min VisibilityMiles, Max Wind SpeedMPH, Mean Wind SpeedMPH, Max Gust SpeedMPH,PrecipitationIn, CloudCover, Events, WindDirDegrees
2011-12-1,42,35,28,32,27,18,100,77,45,29.96,29.91,29.89,10,6,2,16,8,24,0.00,1,,285
2011-12-2,50,36,23,23,17,10,80,50,28,30.04,29.99,29.96,10,8,5,17,5,23,0.00,0,,311
2011-12-3,46,32,19,16,4,-4,68,33,13,30.23,30.09,29.98,10,9,5,20,7,30,0.00,0,,112
2011-12-4,46,30,14,18,8,1,62,40,17,30.24,30.19,30.09,10,9,7,15,6,20,0.00,0,,319
2011-12-5,44,35,26,10,6,0,47,29,18,30.30,30.23,30.15,10,10,7,23,13,33,0.00,0,,120
2011-12-6,50,39,28,5,2,0,32,23,14,30.38,30.33,30.30,10,10,6,16,11,23,0.00,0,,109
2011-12-7,53,40,26,10,7,3,51,29,17,30.32,30.23,30.15,10,9,7,14,10,22,0.00,0,,112
2011-12-8,57,38,19,18,14,10,74,42,18,30.18,30.14,30.11,10,9,7,15,5,22,0.00,0,,120
2011-12-9,57,46,35,16,13,10,41,28,17,30.26,30.22,30.18,10,9,7,21,12,31,0.00,0,,112
2011-12-10,55,44,32,10,8,7,41,24,14,30.24,30.16,30.08,10,10,7,18,11,26,0.00,0,,114
2011-12-11,53,38,23,32,18,9,93,55,19,30.03,29.91,29.82,10,6,2,16,5,20,0.00,0,,78
2011-12-12,39,29,19,34,30,18,100,90,75,29.82,29.76,29.73,10,5,1,13,7,17,0.11,0,Rain-Snow,120
2011-12-13,42,38,33,34,32,28,93,84,57,30.07,29.94,29.85,10,6,2,13,7,,0.00,1,,163
2011-12-14,48,36,23,34,29,23,100,85,46,30.26,30.20,30.09,8,3,0,13,3,,0.00,0,Fog,67
2011-12-15,42,30,19,32,29,19,100,84,49,30.21,30.13,30.08,8,4,1,18,6,24,0.02,0,Rain,299
2011-12-16,55,39,23,32,19,10,100,49,18,30.21,30.16,30.11,10,7,0,23,10,38,0.00,1,Fog,89
2011-12-17,57,49,41,28,17,10,61,31,18,30.19,30.15,30.10,10,10,7,22,15,38,0.00,0,,91
2011-12-18,51,38,24,30,23,18,86,53,28,30.17,30.12,30.08,10,9,7,21,7,25,0.00,0,,313
2011-12-19,51,38,24,32,25,19,100,66,28,30.07,30.03,29.98,10,7,1,18,6,23,0.00,0,,132
2011-12-20,53,38,23,27,21,16,86,54,22,30.10,30.05,30.02,10,9,5,14,6,21,0.00,0,,127
2011-12-21,57,38,19,32,22,14,93,62,20,30.09,30.05,30.00,10,8,3,17,3,22,0.00,0,,309
2011-12-22,48,36,23,21,0,-9,93,28,9,30.42,30.28,30.11,10,9,3,23,11,31,0.00,0,,113
2011-12-23,55,36,17,16,1,-11,54,30,7,30.53,30.47,30.43,10,9,5,13,6,18,0.00,0,,117
2011-12-24,62,40,19,7,-3,-11,58,18,5,30.48,30.45,30.41,10,9,5,15,6,20,0.00,0,,110
2011-12-25,60,40,19,14,3,-2,46,25,9,30.47,30.39,30.32,10,9,7,15,4,,0.00,0,,120
2011-12-26,62,40,19,9,2,-4,54,25,7,30.33,30.29,30.26,10,9,5,16,5,,0.00,0,,313
2011-12-27,59,41,23,25,10,0,64,33,14,30.35,30.30,30.27,10,8,3,16,3,17,0.00,0,,301
2011-12-28,66,44,21,23,13,7,59,38,10,30.39,30.33,30.27,10,8,4,14,4,17,0.00,0,,90
2011-12-29,62,48,35,28,23,16,70,41,23,30.28,30.20,30.15,10,7,4,21,7,28,0.00,0,,301
2011-12-30,60,42,24,36,31,23,93,67,34,30.22,30.17,30.13,10,6,2,21,7,29,0.00,0,,317
2011-12-31,64,44,23,28,19,10,86,44,14,30.28,30.21,30.15,10,8,3,17,5,22,0.30,0,Rain,125